KTBN/TBN METAR and TAF weather

Enter ICAO airport designator
Station Type Date Time Source
KTBN METAR 2019/04/19 07:56 UTC NOAA

KTBN 190756Z AUTO 34009KT 10SM OVC050 08/03 A2979 RMK AO2 SLP093 T00840030 $


Station Type Date Time Source
KTBN Decoded METAR 2019/04/19 07:56 UTC NOAA

Fort Leonard Wood, MO, United States (KTBN) 37-44N 092-08W
Apr 19, 2019 - 03:56 AM EDT / 2019.04.19 0756 UTC
Wind: from the NNW (340 degrees) at 10 MPH (9 KT):0
Visibility: 10 mile(s):0
Sky conditions: overcast
Temperature: 47.1 F (8.4 C)
Dew Point: 37.4 F (3.0 C)
Relative Humidity: 68%
Pressure (altimeter): 29.79 in. Hg (1008 hPa)
ob: KTBN 190756Z AUTO 34009KT 10SM OVC050 08/03 A2979 RMK AO2 SLP093 T00840030
cycle: 8

Station Type Date Time Source
KTBN TAF UTC NOAA

Error!

Example: see airport list